createdAt,value
2019-03-08T00:00:03.190Z,1011.1
2019-03-08T00:01:03.116Z,1011.1
2019-03-08T00:02:03.826Z,1011.1
2019-03-08T00:03:03.329Z,1011
2019-03-08T00:04:03.645Z,1011.1
2019-03-08T00:05:03.878Z,1011.1
2019-03-08T00:06:03.775Z,1011.1
2019-03-08T00:07:03.778Z,1011.1
2019-03-08T00:08:03.538Z,1011.1
2019-03-08T00:09:03.621Z,1011.1
2019-03-08T00:10:03.661Z,1011.1
2019-03-08T00:11:03.406Z,1011
2019-03-08T00:12:03.291Z,1011
2019-03-08T00:13:07.341Z,1011.2
2019-03-08T00:14:03.690Z,1011
2019-03-08T00:15:03.386Z,1011.2
2019-03-08T00:16:03.617Z,1011.2
2019-03-08T00:17:03.501Z,1011.2
2019-03-08T00:18:03.663Z,1011.2
2019-03-08T00:19:03.227Z,1011.2
2019-03-08T00:20:03.244Z,1011.3
2019-03-08T00:21:03.409Z,1011.3
2019-03-08T00:22:03.304Z,1011.2
2019-03-08T00:23:03.366Z,1011.2
2019-03-08T00:24:03.576Z,1011.3
2019-03-08T00:25:03.381Z,1011.3
2019-03-08T00:26:04.765Z,1011.3
2019-03-08T00:27:03.604Z,1011.2
2019-03-08T00:28:03.246Z,1011.3
2019-03-08T00:29:04.008Z,1011.2
2019-03-08T00:30:03.531Z,1011.2
2019-03-08T00:31:03.053Z,1011.2
2019-03-08T00:32:03.157Z,1011.1
2019-03-08T00:33:03.273Z,1011.1
2019-03-08T00:34:03.568Z,1011.1
2019-03-08T00:35:03.744Z,1011.2
2019-03-08T00:36:02.777Z,1011.2
2019-03-08T00:37:03.243Z,1011.2
2019-03-08T00:38:03.330Z,1011.1
2019-03-08T00:39:02.993Z,1011.2
2019-03-08T00:40:03.471Z,1011.3
2019-03-08T00:41:03.182Z,1011.3
2019-03-08T00:42:03.088Z,1011.1
2019-03-08T00:43:03.156Z,1011.2
2019-03-08T00:44:03.115Z,1011.3
2019-03-08T00:45:03.288Z,1011.2
2019-03-08T00:46:03.208Z,1011.2
2019-03-08T00:47:03.158Z,1011.1
2019-03-08T00:48:03.039Z,1011.1
2019-03-08T00:49:03.245Z,1011.3
2019-03-08T00:50:02.973Z,1011.2
2019-03-08T00:51:03.604Z,1011.2
2019-03-08T00:52:03.477Z,1011.2
2019-03-08T00:53:03.248Z,1011.2
2019-03-08T00:54:03.109Z,1011.2
2019-03-08T00:55:04.021Z,1011.3
2019-03-08T00:56:04.300Z,1011.4
2019-03-08T00:57:03.019Z,1011.4
2019-03-08T00:58:03.501Z,1011.2
2019-03-08T00:59:04.087Z,1011.5
2019-03-08T01:00:04.018Z,1011.3
2019-03-08T01:01:03.944Z,1011.3
2019-03-08T01:02:03.000Z,1011.4
2019-03-08T01:03:03.255Z,1011.4
2019-03-08T01:04:03.278Z,1011.3
2019-03-08T01:05:03.170Z,1011.3
2019-03-08T01:06:03.962Z,1011.3
2019-03-08T01:07:03.025Z,1011.3
2019-03-08T01:08:03.837Z,1011.3
2019-03-08T01:09:03.520Z,1011.3
2019-03-08T01:10:03.847Z,1011.3
2019-03-08T01:11:03.259Z,1011.3
2019-03-08T01:12:03.038Z,1011.3
2019-03-08T01:13:03.192Z,1011.4
2019-03-08T01:14:03.774Z,1011.3
2019-03-08T01:15:03.725Z,1011.4
2019-03-08T01:16:03.190Z,1011.4
2019-03-08T01:17:03.643Z,1011.5
2019-03-08T01:18:03.604Z,1011.4
2019-03-08T01:19:03.517Z,1011.3
2019-03-08T01:20:03.919Z,1011.4
2019-03-08T01:21:03.714Z,1011.4
2019-03-08T01:22:04.011Z,1011.4
2019-03-08T01:23:03.864Z,1011.4
2019-03-08T01:24:03.776Z,1011.4
2019-03-08T01:25:03.745Z,1011.3
2019-03-08T01:26:03.224Z,1011.4
2019-03-08T01:27:03.113Z,1011.3
2019-03-08T01:28:03.803Z,1011.3
2019-03-08T01:29:03.511Z,1011.3
2019-03-08T01:30:03.591Z,1011.3
2019-03-08T01:31:03.594Z,1011.3
2019-03-08T01:32:05.901Z,1011.2
2019-03-08T01:33:05.076Z,1011.3
2019-03-08T01:34:03.666Z,1011.3
2019-03-08T01:35:03.182Z,1011.3
2019-03-08T01:36:03.585Z,1011.4
2019-03-08T01:37:03.718Z,1011.2
2019-03-08T01:38:03.702Z,1011.2
2019-03-08T01:39:03.647Z,1011.2
2019-03-08T01:40:03.432Z,1011.2
2019-03-08T01:41:03.545Z,1011.2
2019-03-08T01:42:03.739Z,1011.2
2019-03-08T01:43:03.377Z,1011.2
2019-03-08T01:44:03.531Z,1011.1
2019-03-08T01:45:04.197Z,1011.2
2019-03-08T01:46:03.684Z,1011.2
2019-03-08T01:47:03.288Z,1011.1
2019-03-08T01:48:03.468Z,1011.2
2019-03-08T01:49:05.053Z,1011.1
2019-03-08T01:50:03.967Z,1011.2
2019-03-08T01:51:03.284Z,1011.2
2019-03-08T01:52:03.056Z,1011.2
2019-03-08T01:53:03.048Z,1011.2
2019-03-08T01:54:03.220Z,1011.2
2019-03-08T01:55:03.390Z,1011.1
2019-03-08T01:56:03.692Z,1011.3
2019-03-08T01:57:03.542Z,1011.1
2019-03-08T01:58:04.034Z,1011.2
2019-03-08T01:59:03.784Z,1011.2
2019-03-08T02:00:03.862Z,1011.2
2019-03-08T02:01:03.573Z,1011.2
2019-03-08T02:02:02.578Z,1011.2
2019-03-08T02:03:04.015Z,1011.2
2019-03-08T02:04:02.997Z,1011.2
2019-03-08T02:05:05.033Z,1011.1
2019-03-08T02:06:03.880Z,1011.1
2019-03-08T02:07:03.538Z,1011
2019-03-08T02:08:03.547Z,1011.2
2019-03-08T02:09:03.799Z,1011.2
2019-03-08T02:10:03.241Z,1011.1
2019-03-08T02:11:03.606Z,1011.2
2019-03-08T02:12:03.389Z,1011.1
2019-03-08T02:13:05.450Z,1011.3
2019-03-08T02:14:03.431Z,1011.2
2019-03-08T02:15:03.367Z,1011.1
2019-03-08T02:16:03.173Z,1011.2
2019-03-08T02:17:03.804Z,1011.2
2019-03-08T02:18:04.010Z,1011.2
2019-03-08T02:19:03.092Z,1011.1
2019-03-08T02:20:03.129Z,1011.1
2019-03-08T02:21:08.620Z,1011.1
2019-03-08T02:22:03.254Z,1011
2019-03-08T02:23:03.255Z,1011.1
2019-03-08T02:24:03.047Z,1011.1
2019-03-08T02:25:03.014Z,1011.1
2019-03-08T02:26:03.146Z,1011.1
2019-03-08T02:27:03.999Z,1011
2019-03-08T02:28:03.140Z,1011.1
2019-03-08T02:29:04.820Z,1010.9
2019-03-08T02:30:03.135Z,1010.9
2019-03-08T02:31:03.644Z,1010.9
2019-03-08T02:32:03.127Z,1011
2019-03-08T02:33:03.930Z,1011
2019-03-08T02:34:03.221Z,1011
2019-03-08T02:35:03.319Z,1011
2019-03-08T02:36:03.376Z,1011
2019-03-08T02:37:05.562Z,1011
2019-03-08T02:38:03.810Z,1010.9
2019-03-08T02:39:03.435Z,1011
2019-03-08T02:40:03.901Z,1010.9
2019-03-08T02:41:03.080Z,1011
2019-03-08T02:42:03.566Z,1011
2019-03-08T02:43:03.781Z,1010.9
2019-03-08T02:44:03.759Z,1010.9
2019-03-08T02:45:05.048Z,1011
2019-03-08T02:46:03.491Z,1011
2019-03-08T02:47:03.044Z,1011
2019-03-08T02:48:03.412Z,1010.9
2019-03-08T02:49:03.678Z,1011.1
2019-03-08T02:50:03.645Z,1010.9
2019-03-08T02:51:03.523Z,1011.1
2019-03-08T02:52:03.820Z,1010.9
2019-03-08T02:53:05.269Z,1010.9
2019-03-08T02:54:03.559Z,1010.9
2019-03-08T02:55:03.714Z,1010.9
2019-03-08T02:56:03.267Z,1011.1
2019-03-08T02:57:03.471Z,1011.1
2019-03-08T02:58:03.334Z,1010.9
2019-03-08T02:59:03.360Z,1011.1
2019-03-08T03:00:03.361Z,1010.9
2019-03-08T03:01:04.607Z,1011.1
2019-03-08T03:02:03.192Z,1011.1
2019-03-08T03:03:03.442Z,1011.1
2019-03-08T03:04:03.054Z,1011.1
2019-03-08T03:05:03.108Z,1011.2
2019-03-08T03:06:03.055Z,1011.2
2019-03-08T03:07:03.138Z,1011.2
2019-03-08T03:08:02.863Z,1011.1
2019-03-08T03:09:03.889Z,1011.2
2019-03-08T03:10:03.754Z,1011.1
2019-03-08T03:11:03.779Z,1011.1
2019-03-08T03:12:03.785Z,1011.2
2019-03-08T03:13:03.740Z,1011.2
2019-03-08T03:14:03.862Z,1011.2
2019-03-08T03:15:03.774Z,1011.3
2019-03-08T03:16:03.723Z,1011.2
2019-03-08T03:17:04.553Z,1011.2
2019-03-08T03:18:03.809Z,1011.4
2019-03-08T03:19:03.446Z,1011.3
2019-03-08T03:20:03.772Z,1011.3
2019-03-08T03:21:03.186Z,1011.4
2019-03-08T03:22:03.297Z,1011.3
2019-03-08T03:23:03.433Z,1011.4
2019-03-08T03:24:03.247Z,1011.3
2019-03-08T03:25:04.783Z,1011.4
2019-03-08T03:26:03.091Z,1011.4
2019-03-08T03:27:03.249Z,1011.4
2019-03-08T03:28:03.083Z,1011.4
2019-03-08T03:29:03.397Z,1011.5
2019-03-08T03:30:03.422Z,1011.4
2019-03-08T03:31:03.480Z,1011.6
2019-03-08T03:32:03.202Z,1011.5
2019-03-08T03:33:04.487Z,1011.6
2019-03-08T03:34:03.231Z,1011.6
2019-03-08T03:35:03.843Z,1011.6
2019-03-08T03:36:03.121Z,1011.7
2019-03-08T03:37:04.070Z,1011.6
2019-03-08T03:38:03.857Z,1011.6
2019-03-08T03:39:03.962Z,1011.6
2019-03-08T03:40:03.162Z,1011.6
2019-03-08T03:41:04.537Z,1011.7
2019-03-08T03:42:03.220Z,1011.6
2019-03-08T03:43:02.904Z,1011.6
2019-03-08T03:44:03.767Z,1011.7
2019-03-08T03:45:04.015Z,1011.6
2019-03-08T03:46:03.874Z,1011.7
2019-03-08T03:47:03.939Z,1011.6
2019-03-08T03:48:03.735Z,1011.5
2019-03-08T03:49:04.809Z,1011.6
2019-03-08T03:50:03.823Z,1011.6
2019-03-08T03:51:03.604Z,1011.5
2019-03-08T03:52:03.457Z,1011.5
2019-03-08T03:53:03.361Z,1011.5
2019-03-08T03:54:03.602Z,1011.6
2019-03-08T03:55:03.449Z,1011.6
2019-03-08T03:56:03.527Z,1011.5
2019-03-08T03:57:04.607Z,1011.5
2019-03-08T03:58:03.084Z,1011.7
2019-03-08T03:59:03.120Z,1011.6
2019-03-08T04:00:03.567Z,1011.6
2019-03-08T04:01:03.177Z,1011.5
2019-03-08T04:02:03.049Z,1011.5
2019-03-08T04:03:03.433Z,1011.6
2019-03-08T04:04:03.514Z,1011.6
2019-03-08T04:05:04.509Z,1011.6
2019-03-08T04:06:03.382Z,1011.6
2019-03-08T04:07:03.106Z,1011.6
2019-03-08T04:08:03.189Z,1011.5
2019-03-08T04:09:03.177Z,1011.6
2019-03-08T04:10:03.192Z,1011.5
2019-03-08T04:11:03.157Z,1011.5
2019-03-08T04:12:03.466Z,1011.6
2019-03-08T04:13:04.163Z,1011.8
2019-03-08T04:14:03.102Z,1011.7
2019-03-08T04:15:03.225Z,1011.7
2019-03-08T04:16:03.963Z,1011.8
2019-03-08T04:17:02.827Z,1011.7
2019-03-08T04:18:03.918Z,1011.8
2019-03-08T04:19:03.965Z,1011.8
2019-03-08T04:20:03.888Z,1011.8
2019-03-08T04:21:04.394Z,1011.7
2019-03-08T04:22:03.873Z,1011.8
2019-03-08T04:23:03.731Z,1011.8
2019-03-08T04:24:03.974Z,1011.8
2019-03-08T04:25:03.907Z,1011.9
2019-03-08T04:26:03.772Z,1011.8
2019-03-08T04:27:03.646Z,1011.8
2019-03-08T04:28:03.570Z,1011.8
2019-03-08T04:29:04.722Z,1011.8
2019-03-08T04:30:03.561Z,1011.9
2019-03-08T04:31:03.541Z,1011.9
2019-03-08T04:32:03.535Z,1011.9
2019-03-08T04:33:03.469Z,1011.8
2019-03-08T04:34:04.461Z,1011.9
2019-03-08T04:35:03.571Z,1012
2019-03-08T04:36:03.402Z,1011.9
2019-03-08T04:37:04.614Z,1011.9
2019-03-08T04:38:03.424Z,1011.9
2019-03-08T04:39:03.507Z,1011.9
2019-03-08T04:40:04.090Z,1012
2019-03-08T04:41:02.881Z,1011.9
2019-03-08T04:42:02.953Z,1011.9
2019-03-08T04:43:03.376Z,1011.9
2019-03-08T04:44:04.005Z,1011.9
2019-03-08T04:45:04.644Z,1011.9
2019-03-08T04:46:04.098Z,1012.1
2019-03-08T04:47:03.764Z,1011.9
2019-03-08T04:48:03.786Z,1012
2019-03-08T04:49:03.584Z,1011.9
2019-03-08T04:50:03.692Z,1012
2019-03-08T04:51:03.762Z,1011.9
2019-03-08T04:52:03.727Z,1012
2019-03-08T04:53:04.764Z,1011.9
2019-03-08T04:54:03.788Z,1012
2019-03-08T04:55:03.714Z,1012
2019-03-08T04:56:03.830Z,1012
2019-03-08T04:57:03.480Z,1012
2019-03-08T04:58:03.466Z,1011.9
2019-03-08T04:59:03.579Z,1012
2019-03-08T05:00:03.593Z,1012
2019-03-08T05:01:04.384Z,1012
2019-03-08T05:02:03.490Z,1012
2019-03-08T05:03:03.385Z,1012
2019-03-08T05:04:03.271Z,1012
2019-03-08T05:05:03.330Z,1012
2019-03-08T05:06:03.261Z,1012.1
2019-03-08T05:07:03.412Z,1012
2019-03-08T05:08:03.101Z,1012
2019-03-08T05:09:04.287Z,1012
2019-03-08T05:10:03.239Z,1012
2019-03-08T05:11:03.808Z,1012
2019-03-08T05:12:03.127Z,1012
2019-03-08T05:13:03.812Z,1012.2
2019-03-08T05:14:03.842Z,1012.2
2019-03-08T05:15:03.801Z,1012.3
2019-03-08T05:16:04.046Z,1012.2
2019-03-08T05:17:05.280Z,1012.2
2019-03-08T05:18:03.551Z,1012.2
2019-03-08T05:19:03.866Z,1012.1
2019-03-08T05:20:03.769Z,1012.2
2019-03-08T05:21:03.339Z,1012.2
2019-03-08T05:22:03.878Z,1012.2
2019-03-08T05:23:03.799Z,1012.1
2019-03-08T05:24:03.296Z,1012.2
2019-03-08T05:25:04.927Z,1012.2
2019-03-08T05:26:03.624Z,1012.2
2019-03-08T05:27:03.895Z,1012.2
2019-03-08T05:28:05.377Z,1012.2
2019-03-08T05:29:03.665Z,1012.3
2019-03-08T05:30:03.774Z,1012.3
2019-03-08T05:31:03.382Z,1012.3
2019-03-08T05:32:03.491Z,1012.3
2019-03-08T05:33:05.268Z,1012.3
2019-03-08T05:34:03.304Z,1012.3
2019-03-08T05:35:03.262Z,1012.3
2019-03-08T05:36:03.494Z,1012.2
2019-03-08T05:37:03.126Z,1012.2
2019-03-08T05:38:03.543Z,1012.2
2019-03-08T05:39:03.401Z,1012.2
2019-03-08T05:40:03.424Z,1012.4
2019-03-08T05:41:05.354Z,1012.3
2019-03-08T05:42:03.012Z,1012.4
2019-03-08T05:43:04.528Z,1012.4
2019-03-08T05:44:03.883Z,1012.4
2019-03-08T05:45:03.794Z,1012.4
2019-03-08T05:46:02.801Z,1012.3
2019-03-08T05:47:03.142Z,1012.4
2019-03-08T05:48:03.441Z,1012.5
2019-03-08T05:49:05.307Z,1012.3
2019-03-08T05:50:03.085Z,1012.3
2019-03-08T05:51:03.267Z,1012.3
2019-03-08T05:52:03.051Z,1012.3
2019-03-08T05:53:03.948Z,1012.4
2019-03-08T05:54:04.000Z,1012.3
2019-03-08T05:55:03.981Z,1012.3
2019-03-08T05:56:03.714Z,1012.2
2019-03-08T05:57:03.908Z,1012.3
2019-03-08T05:58:03.605Z,1012.3
2019-03-08T05:59:03.745Z,1012.3
2019-03-08T06:00:03.719Z,1012.4
2019-03-08T06:01:03.512Z,1012.3
2019-03-08T06:02:03.903Z,1012.3
2019-03-08T06:03:04.002Z,1012.3
2019-03-08T06:04:04.051Z,1012.3
2019-03-08T06:05:02.302Z,1012.4
2019-03-08T06:06:03.223Z,1012.3
2019-03-08T06:07:04.027Z,1012.4
2019-03-08T06:08:03.846Z,1012.4
2019-03-08T06:09:03.428Z,1012.4
2019-03-08T06:10:03.658Z,1012.5
2019-03-08T06:11:03.588Z,1012.5
2019-03-08T06:12:04.557Z,1012.5
2019-03-08T06:13:03.182Z,1012.4
2019-03-08T06:14:03.391Z,1012.4
2019-03-08T06:15:03.286Z,1012.5
2019-03-08T06:16:03.359Z,1012.5
2019-03-08T06:17:03.193Z,1012.5
2019-03-08T06:18:03.295Z,1012.5
2019-03-08T06:19:03.222Z,1012.5
2019-03-08T06:20:04.978Z,1012.5
2019-03-08T06:21:03.217Z,1012.5
2019-03-08T06:22:03.019Z,1012.5
2019-03-08T06:23:05.221Z,1012.5
2019-03-08T06:24:03.948Z,1012.6
2019-03-08T06:25:04.007Z,1012.5
2019-03-08T06:26:03.109Z,1012.6
2019-03-08T06:27:03.259Z,1012.5
2019-03-08T06:28:03.574Z,1012.5
2019-03-08T06:29:03.995Z,1012.6
2019-03-08T06:30:03.812Z,1012.5
2019-03-08T06:31:03.805Z,1012.6
2019-03-08T06:32:03.702Z,1012.6
2019-03-08T06:33:03.695Z,1012.7
2019-03-08T06:34:03.472Z,1012.7
2019-03-08T06:35:03.768Z,1012.6
2019-03-08T06:36:03.628Z,1012.8
2019-03-08T06:37:03.445Z,1012.7
2019-03-08T06:38:03.614Z,1012.8
2019-03-08T06:39:03.470Z,1012.8
2019-03-08T06:40:03.634Z,1012.7
2019-03-08T06:41:03.505Z,1012.8
2019-03-08T06:42:03.471Z,1012.8
2019-03-08T06:43:04.035Z,1012.9
2019-03-08T06:44:03.104Z,1012.8
2019-03-08T06:45:03.317Z,1012.8
2019-03-08T06:46:03.443Z,1012.9
2019-03-08T06:47:03.107Z,1012.8
2019-03-08T06:48:03.151Z,1012.8
2019-03-08T06:49:03.597Z,1013
2019-03-08T06:50:03.142Z,1013
2019-03-08T06:51:04.286Z,1013
2019-03-08T06:52:03.942Z,1013.1
2019-03-08T06:53:03.011Z,1013.1
2019-03-08T06:54:03.692Z,1013.1
2019-03-08T06:55:03.040Z,1013.1
2019-03-08T06:56:03.044Z,1013
2019-03-08T06:57:04.011Z,1013.1
2019-03-08T06:58:04.027Z,1013.1
2019-03-08T06:59:04.220Z,1013.2
2019-03-08T07:00:03.432Z,1013.2
2019-03-08T07:01:03.678Z,1013.2
2019-03-08T07:02:03.854Z,1013.2
2019-03-08T07:03:03.431Z,1013.2
2019-03-08T07:04:03.588Z,1013.2
2019-03-08T07:05:03.778Z,1013.3
2019-03-08T07:06:03.583Z,1013.3
2019-03-08T07:07:04.995Z,1013.2
2019-03-08T07:08:03.404Z,1013.1
2019-03-08T07:09:03.406Z,1013.2
2019-03-08T07:10:03.441Z,1013.3
2019-03-08T07:11:03.618Z,1013.3
2019-03-08T07:12:03.567Z,1013.4
2019-03-08T07:13:04.436Z,1013.2
2019-03-08T07:14:03.558Z,1013.2
2019-03-08T07:15:04.989Z,1013.2
2019-03-08T07:16:16.449Z,1013.2
2019-03-08T07:17:03.392Z,1013.2
2019-03-08T07:18:13.545Z,1013.3
2019-03-08T07:19:03.268Z,1013.3
2019-03-08T07:20:03.707Z,1013.2
2019-03-08T07:21:03.783Z,1013.2
2019-03-08T07:22:03.074Z,1013.2
2019-03-08T07:23:03.997Z,1013.2
2019-03-08T07:24:03.046Z,1013.2
2019-03-08T07:25:03.522Z,1013.3
2019-03-08T07:26:03.373Z,1013.3
2019-03-08T07:27:03.247Z,1013.4
2019-03-08T07:28:03.595Z,1013.5
2019-03-08T07:29:03.378Z,1013.4
2019-03-08T07:30:03.545Z,1013.5
2019-03-08T07:31:03.197Z,1013.5
2019-03-08T07:32:03.058Z,1013.5
2019-03-08T07:33:03.259Z,1013.5
2019-03-08T07:34:03.059Z,1013.7
2019-03-08T07:35:03.494Z,1013.7
2019-03-08T07:36:02.895Z,1013.7
2019-03-08T07:37:03.112Z,1013.7
2019-03-08T07:38:03.882Z,1013.8
2019-03-08T07:39:02.981Z,1013.7
2019-03-08T07:40:04.138Z,1013.8
2019-03-08T07:41:03.682Z,1013.8
2019-03-08T07:42:04.091Z,1013.8
2019-03-08T07:43:03.509Z,1013.9
2019-03-08T07:44:03.908Z,1013.9
2019-03-08T07:45:03.750Z,1013.9
2019-03-08T07:46:03.611Z,1013.7
2019-03-08T07:47:03.477Z,1013.7
2019-03-08T07:48:03.678Z,1013.8
2019-03-08T07:49:03.664Z,1013.9
2019-03-08T07:50:03.687Z,1013.8
2019-03-08T07:51:03.722Z,1013.9
2019-03-08T07:52:03.451Z,1013.8
2019-03-08T07:53:03.404Z,1013.8
2019-03-08T07:54:03.926Z,1013.9
2019-03-08T07:55:03.683Z,1013.9
2019-03-08T07:56:03.468Z,1013.9
2019-03-08T07:57:03.612Z,1013.9
2019-03-08T07:58:03.410Z,1013.8
2019-03-08T07:59:03.663Z,1013.9
2019-03-08T08:00:03.347Z,1013.8
2019-03-08T08:01:03.636Z,1013.9
2019-03-08T08:02:03.433Z,1013.9
2019-03-08T08:03:06.588Z,1013.9
2019-03-08T08:04:03.281Z,1014
2019-03-08T08:05:03.787Z,1014
2019-03-08T08:06:03.152Z,1014
2019-03-08T08:07:03.441Z,1014
2019-03-08T08:08:02.915Z,1014
2019-03-08T08:09:03.204Z,1014
2019-03-08T08:10:03.192Z,1014
2019-03-08T08:11:04.575Z,1013.9
2019-03-08T08:12:03.130Z,1013.9
2019-03-08T08:13:04.006Z,1014
2019-03-08T08:14:03.092Z,1014
2019-03-08T08:15:03.204Z,1014.1
2019-03-08T08:16:03.924Z,1014.2
2019-03-08T08:17:03.645Z,1014.1
2019-03-08T08:18:04.051Z,1014.2
2019-03-08T08:19:05.171Z,1014.2
2019-03-08T08:20:03.123Z,1014.2
2019-03-08T08:21:03.744Z,1014.1
2019-03-08T08:22:03.588Z,1014.2
2019-03-08T08:23:03.452Z,1014.2
2019-03-08T08:24:03.661Z,1014.3
2019-03-08T08:25:03.794Z,1014.3
2019-03-08T08:26:04.032Z,1014.3
2019-03-08T08:27:04.739Z,1014.4
2019-03-08T08:28:03.307Z,1014.3
2019-03-08T08:29:03.490Z,1014.3
2019-03-08T08:30:04.000Z,1014.2
2019-03-08T08:31:03.660Z,1014.2
2019-03-08T08:32:03.623Z,1014.3
2019-03-08T08:33:03.609Z,1014.2
2019-03-08T08:34:03.584Z,1014.3
2019-03-08T08:35:04.598Z,1014.3
2019-03-08T08:36:03.456Z,1014.4
2019-03-08T08:37:03.069Z,1014.2
2019-03-08T08:38:03.695Z,1014.3
2019-03-08T08:39:03.522Z,1014.3
2019-03-08T08:40:03.347Z,1014.3
2019-03-08T08:41:03.484Z,1014.3
2019-03-08T08:42:03.542Z,1014.4
2019-03-08T08:43:04.573Z,1014.3
2019-03-08T08:44:03.541Z,1014.2
2019-03-08T08:45:03.282Z,1014.4
2019-03-08T08:46:03.552Z,1014.3
2019-03-08T08:47:03.342Z,1014.4
2019-03-08T08:48:03.281Z,1014.3
2019-03-08T08:49:03.106Z,1014.4
2019-03-08T08:50:03.115Z,1014.5
2019-03-08T08:51:04.630Z,1014.5
2019-03-08T08:52:03.415Z,1014.4
2019-03-08T08:53:03.341Z,1014.3
2019-03-08T08:54:03.041Z,1014.3
2019-03-08T08:55:03.298Z,1014.4
2019-03-08T08:56:04.139Z,1014.5
2019-03-08T08:57:03.038Z,1014.4
2019-03-08T08:58:03.035Z,1014.5
2019-03-08T08:59:04.611Z,1014.4
2019-03-08T09:00:03.141Z,1014.4
2019-03-08T09:01:02.759Z,1014.3
2019-03-08T09:02:03.216Z,1014.5
2019-03-08T09:03:03.151Z,1014.6
2019-03-08T09:04:03.211Z,1014.5
2019-03-08T09:05:03.909Z,1014.5
2019-03-08T09:06:02.969Z,1014.4
2019-03-08T09:07:05.078Z,1014.5
2019-03-08T09:08:02.935Z,1014.4
2019-03-08T09:09:03.942Z,1014.4
2019-03-08T09:10:03.854Z,1014.5
2019-03-08T09:11:03.494Z,1014.5
2019-03-08T09:12:03.686Z,1014.5
2019-03-08T09:13:03.661Z,1014.5
2019-03-08T09:14:03.923Z,1014.5
2019-03-08T09:15:05.016Z,1014.5
2019-03-08T09:16:03.333Z,1014.6
2019-03-08T09:17:03.767Z,1014.6
2019-03-08T09:18:03.462Z,1014.7
2019-03-08T09:19:03.380Z,1014.6
2019-03-08T09:20:03.145Z,1014.7
2019-03-08T09:21:03.827Z,1014.7
2019-03-08T09:22:03.409Z,1014.6
2019-03-08T09:23:04.854Z,1014.5
2019-03-08T09:24:03.573Z,1014.6
2019-03-08T09:25:03.490Z,1014.6
2019-03-08T09:26:03.088Z,1014.7
2019-03-08T09:27:03.366Z,1014.6
2019-03-08T09:28:03.507Z,1014.7
2019-03-08T09:29:03.315Z,1014.7
2019-03-08T09:30:03.515Z,1014.7
2019-03-08T09:31:04.770Z,1014.7
2019-03-08T09:32:03.445Z,1014.8
2019-03-08T09:33:03.813Z,1014.8
2019-03-08T09:34:03.144Z,1014.7
2019-03-08T09:35:03.170Z,1014.7
2019-03-08T09:36:03.159Z,1014.8
2019-03-08T09:37:03.222Z,1014.7
2019-03-08T09:38:03.649Z,1014.8
2019-03-08T09:39:04.657Z,1014.8
2019-03-08T09:40:03.558Z,1014.8
2019-03-08T09:41:03.202Z,1015
2019-03-08T09:42:03.113Z,1014.9
2019-03-08T09:43:03.787Z,1014.9
2019-03-08T09:44:03.170Z,1014.8
2019-03-08T09:45:03.269Z,1015
2019-03-08T09:46:03.717Z,1014.9
2019-03-08T09:47:05.532Z,1014.9
2019-03-08T09:48:03.887Z,1014.9
2019-03-08T09:49:02.962Z,1015
2019-03-08T09:50:03.745Z,1015
2019-03-08T09:51:03.818Z,1015.1
2019-03-08T09:52:03.732Z,1015.1
2019-03-08T09:53:03.769Z,1015
2019-03-08T09:54:03.581Z,1015
2019-03-08T09:55:05.331Z,1015
2019-03-08T09:56:03.085Z,1015
2019-03-08T09:57:03.699Z,1014.9
2019-03-08T09:58:03.610Z,1014.9
2019-03-08T09:59:03.156Z,1014.9
2019-03-08T10:00:03.922Z,1015.1
2019-03-08T10:01:03.567Z,1015
2019-03-08T10:02:03.622Z,1015
2019-03-08T10:03:05.228Z,1015.1
2019-03-08T10:04:03.706Z,1015.1
2019-03-08T10:05:03.602Z,1015
2019-03-08T10:06:03.572Z,1015.1
2019-03-08T10:07:03.300Z,1015.1
2019-03-08T10:08:03.653Z,1015
2019-03-08T10:09:03.120Z,1015.1
2019-03-08T10:10:03.697Z,1014.9
2019-03-08T10:11:04.738Z,1014.9
2019-03-08T10:12:03.304Z,1015.2
2019-03-08T10:13:03.249Z,1015
2019-03-08T10:14:03.152Z,1015
2019-03-08T10:15:03.449Z,1015
2019-03-08T10:16:03.255Z,1015
2019-03-08T10:17:03.421Z,1015.1
2019-03-08T10:18:03.804Z,1015
2019-03-08T10:19:04.721Z,1015
2019-03-08T10:20:03.112Z,1015
2019-03-08T10:21:03.761Z,1014.8
2019-03-08T10:22:03.948Z,1015
2019-03-08T10:23:02.870Z,1014.9
2019-03-08T10:24:04.065Z,1014.9
2019-03-08T10:25:03.907Z,1014.9
2019-03-08T10:26:03.882Z,1015
2019-03-08T10:27:04.663Z,1015
2019-03-08T10:28:03.880Z,1014.9
2019-03-08T10:29:04.149Z,1015.1
2019-03-08T10:30:03.143Z,1015.1
2019-03-08T10:31:03.891Z,1015.1
2019-03-08T10:32:04.021Z,1015.1
2019-03-08T10:33:03.647Z,1015.2
2019-03-08T10:34:03.136Z,1015.2
2019-03-08T10:35:05.190Z,1015.3
2019-03-08T10:36:03.772Z,1015.2
2019-03-08T10:37:03.759Z,1015.2
2019-03-08T10:38:03.763Z,1015.5
2019-03-08T10:39:03.910Z,1015.5
2019-03-08T10:40:06.089Z,1015.5
2019-03-08T10:41:03.728Z,1015.4
2019-03-08T10:42:03.494Z,1015.5
2019-03-08T10:43:05.344Z,1015.6
2019-03-08T10:44:15.810Z,1015.4
2019-03-08T10:45:03.574Z,1015.4
2019-03-08T10:46:03.470Z,1015.5
2019-03-08T10:47:03.684Z,1015.5
2019-03-08T10:48:03.425Z,1015.6
2019-03-08T10:49:04.122Z,1015.6
2019-03-08T10:50:03.690Z,1015.5
2019-03-08T10:51:04.867Z,1015.5
2019-03-08T10:52:03.420Z,1015.5
2019-03-08T10:53:03.688Z,1015.5
2019-03-08T10:54:03.798Z,1015.5
2019-03-08T10:55:03.598Z,1015.5
2019-03-08T10:56:03.463Z,1015.4
2019-03-08T10:57:03.625Z,1015.4
2019-03-08T10:58:03.655Z,1015.4
2019-03-08T10:59:04.777Z,1015.5
2019-03-08T11:00:03.724Z,1015.3
2019-03-08T11:01:03.597Z,1015.3
2019-03-08T11:02:03.232Z,1015.2
2019-03-08T11:03:03.328Z,1015.3
2019-03-08T11:04:03.080Z,1015.2
2019-03-08T11:05:03.659Z,1015.2
2019-03-08T11:06:03.547Z,1015.1
2019-03-08T11:07:05.441Z,1015.2
2019-03-08T11:08:03.867Z,1015.2
2019-03-08T11:09:03.200Z,1015.1
2019-03-08T11:10:03.202Z,1015.2
2019-03-08T11:11:07.146Z,1015.1
2019-03-08T11:12:03.884Z,1015.1
2019-03-08T11:13:03.021Z,1015.2
2019-03-08T11:14:03.170Z,1015.1
2019-03-08T11:15:05.204Z,1015.3
2019-03-08T11:16:04.057Z,1015.4
2019-03-08T11:17:03.227Z,1015.3
2019-03-08T11:18:03.920Z,1015.2
2019-03-08T11:19:09.490Z,1015.2
2019-03-08T11:20:03.793Z,1015.4
2019-03-08T11:21:03.644Z,1015.3
2019-03-08T11:22:03.727Z,1015.3
2019-03-08T11:23:04.754Z,1015.3
2019-03-08T11:24:03.647Z,1015.3
2019-03-08T11:25:09.159Z,1015.4
2019-03-08T11:26:03.801Z,1015.4
2019-03-08T11:27:05.796Z,1015.2
2019-03-08T11:28:03.905Z,1015.3
2019-03-08T11:29:03.573Z,1015.3
2019-03-08T11:30:03.365Z,1015.3
2019-03-08T11:31:04.938Z,1015.2
2019-03-08T11:32:03.559Z,1015.2
2019-03-08T11:33:03.588Z,1015.3
2019-03-08T11:34:03.424Z,1015.3
2019-03-08T11:35:03.443Z,1015.3
2019-03-08T11:36:03.475Z,1015.4
2019-03-08T11:37:04.696Z,1015.4
2019-03-08T11:38:03.399Z,1015.4
2019-03-08T11:39:04.515Z,1015.4
2019-03-08T11:40:03.420Z,1015.4
2019-03-08T11:41:03.381Z,1015.4
2019-03-08T11:42:03.257Z,1015.4
2019-03-08T11:43:03.092Z,1015.5
2019-03-08T11:44:03.294Z,1015.4
2019-03-08T11:45:03.466Z,1015.4
2019-03-08T11:46:03.044Z,1015.4
2019-03-08T11:47:04.535Z,1015.2
2019-03-08T11:48:02.943Z,1015.4
2019-03-08T11:49:03.233Z,1015.4
2019-03-08T11:50:03.675Z,1015.4
2019-03-08T11:51:03.794Z,1015.3
2019-03-08T11:52:03.911Z,1015.3
2019-03-08T11:53:03.681Z,1015.3
2019-03-08T11:54:03.838Z,1015.3
2019-03-08T11:55:03.983Z,1015.3
2019-03-08T11:56:03.217Z,1015.3
2019-03-08T11:57:03.116Z,1015.4
2019-03-08T11:58:03.838Z,1015.3
2019-03-08T11:59:02.867Z,1015.4
2019-03-08T12:00:03.839Z,1015.5
2019-03-08T12:01:03.017Z,1015.3
2019-03-08T12:02:06.093Z,1015.3
2019-03-08T12:03:03.211Z,1015.4
2019-03-08T12:04:03.748Z,1015.3
2019-03-08T12:05:02.918Z,1015.3
2019-03-08T12:06:03.719Z,1015.3
2019-03-08T12:07:03.912Z,1015.3
2019-03-08T12:08:03.777Z,1015.2
2019-03-08T12:09:03.678Z,1015
2019-03-08T12:10:03.882Z,1015.1
2019-03-08T12:11:03.867Z,1015.1
2019-03-08T12:12:04.624Z,1015
2019-03-08T12:13:03.861Z,1015
2019-03-08T12:14:04.020Z,1015
2019-03-08T12:15:03.672Z,1015.1
2019-03-08T12:16:03.846Z,1015.1
2019-03-08T12:17:03.558Z,1015.1
2019-03-08T12:18:03.587Z,1015
2019-03-08T12:19:03.741Z,1015.2
2019-03-08T12:20:04.210Z,1015.1
2019-03-08T12:21:03.385Z,1015.1
2019-03-08T12:22:03.532Z,1015.2
2019-03-08T12:23:03.464Z,1015.2
2019-03-08T12:24:03.579Z,1015.2
2019-03-08T12:25:03.427Z,1015.2
2019-03-08T12:26:03.429Z,1015.2
2019-03-08T12:27:05.141Z,1015.2
2019-03-08T12:28:04.783Z,1015.3
2019-03-08T12:29:04.076Z,1015.3
2019-03-08T12:30:05.153Z,1015.3
2019-03-08T12:31:03.378Z,1015.1
2019-03-08T12:32:03.092Z,1015.1
2019-03-08T12:33:02.939Z,1015.1